createdAt,value
2023-01-29T00:00:14.050Z,14.40
2023-01-29T00:05:27.113Z,13.80
2023-01-29T00:07:43.668Z,13.50
2023-01-29T00:09:56.089Z,14.10
2023-01-29T00:12:10.025Z,13.20
2023-01-29T00:14:23.243Z,13.30
2023-01-29T00:16:36.221Z,13.10
2023-01-29T00:18:52.039Z,13.60
2023-01-29T00:21:12.140Z,12.90
2023-01-29T00:23:25.457Z,11.70
2023-01-29T00:25:40.929Z,10.90
2023-01-29T00:27:53.556Z,11.30
2023-01-29T00:30:15.146Z,11.00
2023-01-29T00:32:28.581Z,10.50
2023-01-29T00:34:42.025Z,9.50
2023-01-29T00:37:05.276Z,9.40
2023-01-29T00:39:29.403Z,10.30
2023-01-29T00:42:09.016Z,9.60
2023-01-29T00:44:41.057Z,10.10
2023-01-29T00:46:53.836Z,9.10
2023-01-29T00:49:08.119Z,10.50
2023-01-29T00:51:20.853Z,9.80
2023-01-29T00:53:33.745Z,9.90
2023-01-29T00:55:48.347Z,10.20
2023-01-29T00:58:01.954Z,9.50
2023-01-29T01:00:18.511Z,11.60
2023-01-29T01:02:53.142Z,10.90
2023-01-29T01:05:18.318Z,11.30
2023-01-29T01:07:30.751Z,11.20
2023-01-29T01:10:01.797Z,10.70
2023-01-29T01:12:13.786Z,10.20
2023-01-29T01:14:26.194Z,10.30
2023-01-29T01:16:38.121Z,11.30
2023-01-29T01:18:50.387Z,10.60
2023-01-29T01:21:02.584Z,10.50
2023-01-29T01:23:14.375Z,10.40
2023-01-29T01:25:27.390Z,10.80
2023-01-29T01:27:41.522Z,10.20
2023-01-29T01:29:53.739Z,10.50
2023-01-29T01:32:06.550Z,10.50
2023-01-29T01:34:18.648Z,11.20
2023-01-29T01:36:32.440Z,10.70
2023-01-29T01:38:44.790Z,12.00
2023-01-29T01:40:56.337Z,10.70
2023-01-29T01:43:10.327Z,10.40
2023-01-29T01:45:36.692Z,10.30
2023-01-29T01:47:59.185Z,10.50
2023-01-29T01:50:24.612Z,10.20
2023-01-29T01:52:42.481Z,9.60
2023-01-29T01:54:54.217Z,10.20
2023-01-29T01:57:25.201Z,11.10
2023-01-29T01:59:40.321Z,10.30
2023-01-29T02:01:54.627Z,10.50
2023-01-29T02:04:29.915Z,10.60
2023-01-29T02:07:02.592Z,10.20
2023-01-29T02:09:35.952Z,9.60
2023-01-29T02:11:49.417Z,10.10
2023-01-29T02:14:01.529Z,10.50
2023-01-29T02:16:13.727Z,9.70
2023-01-29T02:18:26.119Z,10.00
2023-01-29T02:20:41.493Z,10.10
2023-01-29T02:23:18.278Z,10.20
2023-01-29T02:25:49.159Z,10.00
2023-01-29T02:28:24.363Z,10.00
2023-01-29T02:30:41.804Z,9.30
2023-01-29T02:33:22.467Z,9.00
2023-01-29T02:35:40.573Z,9.60
2023-01-29T02:37:58.712Z,9.80
2023-01-29T02:40:36.510Z,10.50
2023-01-29T02:42:57.420Z,9.70
2023-01-29T02:45:28.353Z,10.40
2023-01-29T02:47:39.958Z,9.40
2023-01-29T02:50:04.527Z,11.00
2023-01-29T02:52:36.699Z,10.70
2023-01-29T02:55:03.036Z,9.90
2023-01-29T02:57:29.377Z,10.30
2023-01-29T02:59:48.382Z,10.20
2023-01-29T03:02:07.450Z,11.00
2023-01-29T03:04:33.298Z,12.50
2023-01-29T03:06:53.265Z,11.10
2023-01-29T03:09:11.313Z,10.80
2023-01-29T03:14:13.410Z,9.60
2023-01-29T03:16:35.551Z,9.40
2023-01-29T03:18:56.781Z,10.30
2023-01-29T03:21:34.538Z,10.10
2023-01-29T03:24:06.541Z,10.40
2023-01-29T03:26:41.129Z,10.40
2023-01-29T03:29:12.374Z,11.30
2023-01-29T03:31:46.204Z,11.50
2023-01-29T03:34:05.377Z,11.30
2023-01-29T03:36:23.071Z,11.00
2023-01-29T03:38:35.273Z,10.30
2023-01-29T03:40:58.635Z,10.90
2023-01-29T03:43:35.308Z,12.30
2023-01-29T03:45:54.379Z,11.60
2023-01-29T03:48:20.185Z,11.20
2023-01-29T03:50:52.936Z,10.60
2023-01-29T03:53:17.971Z,11.20
2023-01-29T03:55:35.404Z,11.10
2023-01-29T03:58:07.768Z,12.50
2023-01-29T04:00:27.232Z,11.10
2023-01-29T04:03:00.640Z,10.70
2023-01-29T04:05:21.184Z,11.40
2023-01-29T04:07:45.306Z,11.40
2023-01-29T04:10:09.395Z,12.20
2023-01-29T04:12:28.360Z,10.90
2023-01-29T04:14:40.639Z,10.60
2023-01-29T04:16:57.549Z,11.30
2023-01-29T04:19:20.912Z,10.70
2023-01-29T04:21:37.307Z,10.20
2023-01-29T04:23:48.933Z,10.80
2023-01-29T04:26:19.421Z,11.10
2023-01-29T04:28:42.072Z,9.90
2023-01-29T04:31:09.068Z,10.40
2023-01-29T04:33:46.304Z,11.00
2023-01-29T04:36:19.802Z,9.40
2023-01-29T04:38:47.973Z,10.00
2023-01-29T04:41:16.727Z,10.40
2023-01-29T04:43:40.839Z,10.50
2023-01-29T04:45:59.185Z,9.50
2023-01-29T04:50:40.712Z,9.80
2023-01-29T04:53:25.369Z,9.70
2023-01-29T04:55:47.099Z,9.90
2023-01-29T04:58:23.947Z,9.90
2023-01-29T05:00:42.519Z,9.20
2023-01-29T05:02:54.749Z,12.90
2023-01-29T05:05:08.526Z,12.20
2023-01-29T05:07:23.186Z,11.40
2023-01-29T05:09:37.128Z,12.20
2023-01-29T05:11:50.461Z,11.90
2023-01-29T05:14:05.591Z,16.70
2023-01-29T05:16:23.990Z,23.90
2023-01-29T05:18:36.635Z,14.00
2023-01-29T05:20:50.411Z,20.20
2023-01-29T05:23:02.508Z,12.70
2023-01-29T05:25:24.200Z,11.50
2023-01-29T05:27:56.092Z,13.40
2023-01-29T05:30:10.526Z,12.00
2023-01-29T05:32:22.436Z,12.30
2023-01-29T05:34:34.650Z,11.80
2023-01-29T05:36:46.532Z,12.40
2023-01-29T05:38:58.830Z,11.30
2023-01-29T05:41:10.825Z,12.10
2023-01-29T05:43:25.275Z,12.00
2023-01-29T05:45:37.271Z,12.90
2023-01-29T05:47:49.165Z,14.30
2023-01-29T05:50:01.265Z,18.40
2023-01-29T05:52:12.848Z,13.40
2023-01-29T05:54:24.740Z,14.90
2023-01-29T05:56:36.322Z,11.70
2023-01-29T05:58:48.307Z,11.00
2023-01-29T06:01:14.039Z,12.00
2023-01-29T06:03:26.028Z,10.90
2023-01-29T06:05:38.947Z,10.90
2023-01-29T06:07:51.248Z,11.60
2023-01-29T06:10:04.267Z,11.30
2023-01-29T06:12:16.363Z,11.80
2023-01-29T06:14:28.156Z,11.60
2023-01-29T06:16:39.635Z,19.20
2023-01-29T06:18:51.635Z,14.80
2023-01-29T06:21:05.287Z,13.70
2023-01-29T06:23:17.053Z,12.50
2023-01-29T06:25:28.955Z,11.20
2023-01-29T06:27:40.940Z,12.40
2023-01-29T06:29:53.042Z,11.60
2023-01-29T06:32:05.737Z,11.70
2023-01-29T06:34:18.159Z,11.80
2023-01-29T06:36:29.797Z,11.90
2023-01-29T06:38:41.669Z,13.20
2023-01-29T06:40:54.445Z,13.70
2023-01-29T06:43:06.188Z,14.10
2023-01-29T06:45:18.129Z,14.10
2023-01-29T06:47:29.923Z,17.20
2023-01-29T06:49:42.028Z,15.40
2023-01-29T06:51:54.115Z,18.60
2023-01-29T06:54:08.457Z,15.60
2023-01-29T06:56:20.456Z,15.10
2023-01-29T06:58:32.552Z,20.00
2023-01-29T07:00:44.567Z,15.20
2023-01-29T07:02:56.439Z,15.00
2023-01-29T07:05:08.331Z,17.90
2023-01-29T07:07:20.538Z,15.60
2023-01-29T07:09:32.218Z,18.00
2023-01-29T07:11:44.831Z,17.00
2023-01-29T07:13:57.039Z,17.60
2023-01-29T07:16:09.897Z,14.20
2023-01-29T07:18:22.046Z,16.00
2023-01-29T07:20:33.730Z,19.10
2023-01-29T07:22:45.722Z,15.80
2023-01-29T07:24:57.513Z,18.40
2023-01-29T07:27:09.111Z,17.30
2023-01-29T07:29:20.797Z,18.60
2023-01-29T07:31:33.055Z,17.60
2023-01-29T07:33:45.547Z,16.80
2023-01-29T07:35:57.385Z,17.90
2023-01-29T07:38:10.912Z,23.40
2023-01-29T07:40:23.220Z,26.20
2023-01-29T07:42:35.210Z,34.50
2023-01-29T07:44:47.309Z,72.10
2023-01-29T07:46:58.910Z,54.60
2023-01-29T07:49:11.203Z,31.70
2023-01-29T07:51:22.728Z,33.30
2023-01-29T07:53:34.675Z,37.60
2023-01-29T07:55:46.359Z,34.20
2023-01-29T07:58:02.899Z,46.20
2023-01-29T08:00:15.906Z,42.00
2023-01-29T08:02:27.905Z,31.00
2023-01-29T08:04:40.072Z,140.60
2023-01-29T08:06:52.170Z,116.70
2023-01-29T08:09:04.377Z,57.10
2023-01-29T08:11:16.683Z,61.50
2023-01-29T08:13:28.990Z,54.00
2023-01-29T08:15:47.531Z,63.90
2023-01-29T08:20:12.846Z,43.60
2023-01-29T08:22:24.788Z,46.20
2023-01-29T08:24:47.924Z,51.80
2023-01-29T08:27:06.233Z,140.40
2023-01-29T08:29:18.228Z,103.40
2023-01-29T08:31:30.154Z,72.00
2023-01-29T08:33:42.219Z,51.90
2023-01-29T08:35:54.213Z,60.50
2023-01-29T08:38:06.225Z,50.70
2023-01-29T08:40:18.649Z,53.60
2023-01-29T08:42:30.503Z,68.10
2023-01-29T08:44:42.702Z,57.40
2023-01-29T08:46:54.397Z,51.50
2023-01-29T08:49:06.694Z,47.60
2023-01-29T08:51:18.736Z,41.20
2023-01-29T08:53:31.505Z,37.70
2023-01-29T08:55:43.088Z,39.30
2023-01-29T08:57:55.385Z,48.60
2023-01-29T09:00:10.306Z,52.20
2023-01-29T09:02:22.576Z,38.80
2023-01-29T09:04:34.854Z,37.30
2023-01-29T09:06:46.960Z,39.70
2023-01-29T09:08:58.853Z,51.50
2023-01-29T09:11:11.454Z,40.70
2023-01-29T09:13:23.551Z,31.20
2023-01-29T09:15:35.244Z,56.20
2023-01-29T09:17:49.584Z,48.20
2023-01-29T09:20:01.382Z,48.80
2023-01-29T09:22:13.374Z,50.00
2023-01-29T09:24:25.570Z,87.00
2023-01-29T09:26:37.390Z,50.30
2023-01-29T09:28:49.048Z,48.80
2023-01-29T09:31:03.252Z,42.30
2023-01-29T09:33:15.802Z,44.30
2023-01-29T09:35:27.799Z,48.20
2023-01-29T09:37:39.699Z,51.50
2023-01-29T09:39:52.975Z,54.90
2023-01-29T09:42:25.902Z,42.90
2023-01-29T09:45:10.670Z,86.90
2023-01-29T09:47:26.669Z,69.60
2023-01-29T09:50:06.311Z,61.90
2023-01-29T09:52:26.685Z,84.90
2023-01-29T09:54:50.975Z,75.10
2023-01-29T09:57:03.020Z,64.20
2023-01-29T09:59:19.156Z,74.20
2023-01-29T10:01:47.799Z,62.50
2023-01-29T10:04:29.048Z,62.70
2023-01-29T10:06:56.480Z,81.60
2023-01-29T10:09:25.984Z,69.10
2023-01-29T10:12:01.734Z,73.00
2023-01-29T10:14:38.302Z,56.80
2023-01-29T10:17:12.680Z,57.50
2023-01-29T10:19:45.099Z,62.40
2023-01-29T10:22:22.898Z,54.00
2023-01-29T10:24:41.965Z,73.10
2023-01-29T10:26:55.803Z,73.80
2023-01-29T10:29:08.830Z,62.60
2023-01-29T10:31:33.383Z,51.90
2023-01-29T10:34:02.361Z,42.60
2023-01-29T10:36:23.116Z,43.60
2023-01-29T10:38:46.562Z,45.10
2023-01-29T10:41:04.598Z,40.60
2023-01-29T10:43:33.180Z,42.40
2023-01-29T10:45:56.951Z,50.90
2023-01-29T10:48:30.551Z,72.90
2023-01-29T10:50:47.359Z,69.10
2023-01-29T10:53:12.572Z,96.50
2023-01-29T10:55:49.339Z,61.10
2023-01-29T11:01:50.256Z,39.90
2023-01-29T11:04:08.201Z,43.20
2023-01-29T11:06:37.934Z,39.70
2023-01-29T11:09:04.172Z,32.50
2023-01-29T11:11:18.841Z,35.70
2023-01-29T11:13:36.263Z,36.80
2023-01-29T11:15:52.961Z,39.40
2023-01-29T11:18:16.277Z,35.10
2023-01-29T11:20:32.843Z,35.90
2023-01-29T11:22:56.240Z,36.40
2023-01-29T11:25:19.285Z,43.10
2023-01-29T11:27:35.634Z,37.10
2023-01-29T11:29:48.376Z,39.60
2023-01-29T11:32:06.039Z,38.70
2023-01-29T11:34:21.878Z,36.50
2023-01-29T11:36:39.419Z,32.10
2023-01-29T11:39:18.922Z,39.40
2023-01-29T11:41:50.436Z,33.50
2023-01-29T11:44:17.318Z,34.80
2023-01-29T11:46:29.154Z,33.00
2023-01-29T11:48:51.899Z,33.70
2023-01-29T11:51:06.667Z,58.90
2023-01-29T11:53:43.923Z,51.10
2023-01-29T11:55:56.102Z,59.00
2023-01-29T11:58:17.056Z,51.80
2023-01-29T12:00:33.680Z,50.40
2023-01-29T12:02:49.831Z,41.40
2023-01-29T12:05:13.841Z,48.30
2023-01-29T12:07:25.670Z,45.20
2023-01-29T12:09:39.465Z,40.70
2023-01-29T12:11:52.739Z,44.80
2023-01-29T12:14:15.355Z,47.80
2023-01-29T12:16:44.683Z,48.10
2023-01-29T12:19:21.989Z,44.30
2023-01-29T12:21:51.286Z,44.90
2023-01-29T12:24:26.302Z,39.40
2023-01-29T12:26:49.668Z,35.80
2023-01-29T12:29:20.497Z,37.60
2023-01-29T12:31:55.429Z,38.70
2023-01-29T12:34:25.003Z,38.90
2023-01-29T12:36:53.395Z,38.80
2023-01-29T12:39:05.489Z,68.60
2023-01-29T12:41:37.635Z,47.20
2023-01-29T12:43:55.260Z,40.50
2023-01-29T12:46:16.212Z,41.10
2023-01-29T12:48:30.771Z,42.70
2023-01-29T12:50:50.405Z,41.40
2023-01-29T12:53:07.557Z,39.30
2023-01-29T12:55:30.859Z,39.60
2023-01-29T12:57:54.075Z,39.20
2023-01-29T13:00:15.531Z,40.40
2023-01-29T13:02:36.290Z,42.50
2023-01-29T13:05:01.493Z,46.00
2023-01-29T13:07:19.016Z,44.80
2023-01-29T13:09:34.599Z,42.90
2023-01-29T13:12:01.747Z,41.30
2023-01-29T13:14:25.514Z,42.10
2023-01-29T13:16:48.294Z,38.50
2023-01-29T13:19:05.305Z,40.00
2023-01-29T13:21:31.300Z,33.00
2023-01-29T13:23:47.367Z,44.50
2023-01-29T13:25:59.998Z,47.10
2023-01-29T13:28:25.821Z,53.00
2023-01-29T13:30:37.633Z,44.00
2023-01-29T13:32:54.407Z,47.90
2023-01-29T13:35:14.130Z,41.70
2023-01-29T13:37:37.145Z,44.10
2023-01-29T13:39:52.236Z,36.20
2023-01-29T13:42:17.486Z,38.40
2023-01-29T13:44:36.113Z,43.60
2023-01-29T13:46:53.285Z,42.30
2023-01-29T13:49:05.764Z,39.40
2023-01-29T13:51:23.016Z,60.10
2023-01-29T13:53:40.554Z,50.20
2023-01-29T13:55:54.345Z,43.30
2023-01-29T13:58:14.011Z,47.90
2023-01-29T14:00:34.986Z,63.00
2023-01-29T14:03:11.926Z,47.70
2023-01-29T14:05:29.868Z,54.70
2023-01-29T14:07:51.057Z,46.30
2023-01-29T14:10:15.017Z,47.30
2023-01-29T14:12:35.077Z,39.60
2023-01-29T14:14:59.390Z,41.40
2023-01-29T14:17:12.232Z,36.40
2023-01-29T14:19:30.055Z,35.90
2023-01-29T14:21:53.948Z,36.40
2023-01-29T14:24:43.996Z,36.20
2023-01-29T14:27:00.646Z,32.10
2023-01-29T14:29:21.608Z,35.30
2023-01-29T14:32:20.848Z,36.30
2023-01-29T14:35:13.652Z,35.50
2023-01-29T14:37:34.068Z,35.20
2023-01-29T14:39:52.145Z,41.70
2023-01-29T14:42:19.209Z,36.00
2023-01-29T14:44:44.909Z,36.80
2023-01-29T14:46:58.001Z,34.90
2023-01-29T14:49:11.128Z,36.30
2023-01-29T14:51:27.085Z,38.40
2023-01-29T14:53:55.293Z,42.40
2023-01-29T14:56:26.629Z,38.10
2023-01-29T14:58:56.243Z,53.10
2023-01-29T15:01:24.581Z,43.70
2023-01-29T15:03:51.604Z,38.90
2023-01-29T15:06:07.864Z,41.90
2023-01-29T15:18:06.339Z,35.60
2023-01-29T15:24:13.970Z,37.20
2023-01-29T15:26:28.552Z,42.70
2023-01-29T15:29:04.687Z,35.80
2023-01-29T15:31:38.101Z,47.10
2023-01-29T15:34:17.562Z,46.50
2023-01-29T15:36:42.801Z,47.80
2023-01-29T15:39:23.912Z,41.50
2023-01-29T15:41:40.047Z,45.60
2023-01-29T15:43:58.340Z,39.60
2023-01-29T15:46:28.311Z,45.70
2023-01-29T15:48:45.661Z,33.90
2023-01-29T15:51:00.438Z,42.30
2023-01-29T15:53:30.133Z,42.90
2023-01-29T15:55:45.520Z,34.40
2023-01-29T15:58:00.844Z,35.40
2023-01-29T16:00:41.356Z,31.40
2023-01-29T16:03:01.813Z,30.20
2023-01-29T16:05:18.649Z,33.80
2023-01-29T16:07:32.350Z,31.30
2023-01-29T16:09:44.951Z,34.80
2023-01-29T16:11:59.704Z,35.00
2023-01-29T16:14:16.468Z,37.00
2023-01-29T16:16:29.428Z,35.70
2023-01-29T16:18:57.803Z,33.40
2023-01-29T16:22:03.183Z,31.10
2023-01-29T16:24:32.052Z,32.00
2023-01-29T16:27:11.966Z,33.00
2023-01-29T16:29:32.783Z,33.00
2023-01-29T16:32:00.325Z,36.20
2023-01-29T16:34:26.645Z,33.70
2023-01-29T16:36:49.580Z,35.40
2023-01-29T16:39:19.824Z,36.70
2023-01-29T16:41:38.757Z,33.70
2023-01-29T16:43:55.292Z,39.80
2023-01-29T16:46:24.809Z,39.60
2023-01-29T16:48:37.137Z,36.00
2023-01-29T16:50:55.070Z,36.90
2023-01-29T16:53:53.012Z,36.60
2023-01-29T16:56:09.407Z,34.50
2023-01-29T16:58:31.812Z,34.40
2023-01-29T17:00:57.890Z,36.40
2023-01-29T17:03:19.969Z,33.10
2023-01-29T17:05:38.253Z,36.20
2023-01-29T17:07:57.043Z,31.80
2023-01-29T17:10:19.207Z,34.00
2023-01-29T17:12:37.359Z,35.20
2023-01-29T17:15:02.417Z,41.40
2023-01-29T17:17:19.435Z,36.50
2023-01-29T17:19:35.596Z,38.50
2023-01-29T17:21:48.417Z,35.90
2023-01-29T17:24:01.715Z,39.70
2023-01-29T17:26:20.146Z,35.20
2023-01-29T17:28:34.578Z,72.50
2023-01-29T17:31:05.850Z,51.40
2023-01-29T17:33:23.914Z,39.80
2023-01-29T17:35:37.616Z,36.80
2023-01-29T17:37:51.841Z,40.60
2023-01-29T17:40:23.781Z,40.90
2023-01-29T17:42:41.198Z,37.00
2023-01-29T17:44:53.420Z,36.30
2023-01-29T17:47:11.167Z,40.10
2023-01-29T17:49:26.918Z,38.00
2023-01-29T17:51:40.144Z,35.90
2023-01-29T17:54:00.340Z,36.40
2023-01-29T17:56:15.018Z,39.40
2023-01-29T17:58:27.989Z,35.50
2023-01-29T18:00:41.855Z,34.30
2023-01-29T18:02:55.366Z,33.20
2023-01-29T18:05:12.274Z,33.20
2023-01-29T18:07:30.269Z,36.60
2023-01-29T18:09:57.564Z,35.30
2023-01-29T18:12:13.477Z,35.00
2023-01-29T18:14:48.471Z,32.30
2023-01-29T18:17:03.869Z,34.50
2023-01-29T18:19:23.549Z,33.20
2023-01-29T18:21:49.653Z,33.10
2023-01-29T18:24:02.667Z,37.10
2023-01-29T18:29:51.047Z,30.40
2023-01-29T18:32:04.935Z,32.60
2023-01-29T18:35:31.056Z,36.80
2023-01-29T18:38:23.381Z,33.20
2023-01-29T18:40:40.474Z,34.60
2023-01-29T18:42:55.111Z,35.30
2023-01-29T18:45:15.650Z,40.60
2023-01-29T18:47:31.011Z,40.40
2023-01-29T18:49:52.778Z,34.00
2023-01-29T18:52:07.501Z,33.60
2023-01-29T18:54:24.176Z,32.20
2023-01-29T18:57:06.318Z,36.10
2023-01-29T18:59:15.419Z,33.40
2023-01-29T19:01:28.367Z,32.00
2023-01-29T19:03:44.768Z,33.60
2023-01-29T19:06:03.921Z,30.10
2023-01-29T19:08:18.129Z,30.20
2023-01-29T19:10:34.996Z,30.50
2023-01-29T19:12:48.403Z,29.60
2023-01-29T19:15:06.113Z,28.20
2023-01-29T19:17:21.430Z,31.20
2023-01-29T19:19:38.716Z,29.70
2023-01-29T19:21:56.015Z,28.70
2023-01-29T19:24:12.288Z,30.10
2023-01-29T19:26:25.589Z,29.60
2023-01-29T19:28:38.861Z,29.40
2023-01-29T19:34:29.371Z,28.20
2023-01-29T19:36:41.573Z,29.80
2023-01-29T19:39:42.007Z,30.30
2023-01-29T19:41:54.196Z,28.30
2023-01-29T19:44:41.941Z,27.80
2023-01-29T19:47:02.570Z,25.90
2023-01-29T19:49:17.448Z,29.10
2023-01-29T19:51:33.825Z,29.10
2023-01-29T19:53:52.466Z,25.80
2023-01-29T19:56:19.333Z,27.20
2023-01-29T19:58:34.879Z,27.00
2023-01-29T20:00:58.073Z,28.10
2023-01-29T20:03:11.349Z,28.80
2023-01-29T20:05:29.007Z,28.10
2023-01-29T20:07:45.230Z,25.50
2023-01-29T20:12:33.746Z,25.00
2023-01-29T20:14:49.354Z,26.80
2023-01-29T20:17:06.435Z,28.20
2023-01-29T20:19:20.934Z,26.60
2023-01-29T20:22:08.395Z,28.50
2023-01-29T20:24:22.327Z,26.80
2023-01-29T20:26:52.217Z,26.90
2023-01-29T20:29:12.232Z,27.70
2023-01-29T20:31:41.040Z,26.20
2023-01-29T20:34:01.436Z,26.40
2023-01-29T20:36:18.539Z,27.20
2023-01-29T20:38:34.180Z,25.10
2023-01-29T20:40:47.847Z,28.50
2023-01-29T20:43:12.490Z,27.60
2023-01-29T20:45:26.945Z,28.30
2023-01-29T20:47:44.149Z,26.40
2023-01-29T20:49:58.485Z,27.10
2023-01-29T20:52:13.047Z,26.00
2023-01-29T20:54:30.398Z,25.20
2023-01-29T20:56:46.697Z,28.60
2023-01-29T20:59:02.953Z,26.20
2023-01-29T21:01:21.552Z,27.30
2023-01-29T21:03:41.275Z,27.00
2023-01-29T21:08:35.813Z,25.70
2023-01-29T21:11:22.528Z,23.60
2023-01-29T21:13:52.020Z,24.00
2023-01-29T21:20:45.498Z,22.20
2023-01-29T21:24:23.957Z,23.30
2023-01-29T21:27:16.623Z,23.90
2023-01-29T21:30:01.435Z,23.90
2023-01-29T21:32:18.651Z,23.80
2023-01-29T21:34:32.484Z,23.10
2023-01-29T21:36:51.519Z,23.90
2023-01-29T21:41:55.548Z,21.30
2023-01-29T21:44:08.794Z,23.20
2023-01-29T21:46:23.296Z,21.00
2023-01-29T21:48:40.385Z,23.80
2023-01-29T21:50:57.026Z,21.20
2023-01-29T21:53:13.838Z,21.60
2023-01-29T21:55:30.625Z,23.70
2023-01-29T21:57:46.895Z,20.90
2023-01-29T22:00:01.216Z,21.00
2023-01-29T22:02:23.400Z,21.10
2023-01-29T22:04:39.538Z,21.90
2023-01-29T22:06:53.054Z,20.20
2023-01-29T22:09:07.494Z,21.70
2023-01-29T22:11:22.660Z,21.10
2023-01-29T22:13:39.591Z,21.60
2023-01-29T22:15:58.660Z,21.60
2023-01-29T22:18:11.551Z,20.50
2023-01-29T22:20:31.276Z,21.30
2023-01-29T22:22:43.629Z,20.90
2023-01-29T22:25:00.142Z,20.40
2023-01-29T22:27:17.132Z,21.20
2023-01-29T22:29:29.659Z,21.40
2023-01-29T22:31:44.310Z,19.80
2023-01-29T22:33:57.676Z,20.10
2023-01-29T22:36:12.292Z,21.70
2023-01-29T22:38:27.997Z,18.60
2023-01-29T22:40:51.306Z,21.00
2023-01-29T22:43:05.791Z,20.50
2023-01-29T22:45:20.246Z,22.30
2023-01-29T22:47:34.105Z,24.50
2023-01-29T22:49:50.269Z,21.40
2023-01-29T22:52:11.707Z,25.50
2023-01-29T22:54:26.235Z,23.10
2023-01-29T22:56:40.176Z,21.90
2023-01-29T22:58:54.017Z,22.20
2023-01-29T23:01:06.227Z,21.10
2023-01-29T23:03:18.007Z,20.90
2023-01-29T23:05:29.896Z,20.30
2023-01-29T23:07:42.097Z,21.10
2023-01-29T23:09:54.009Z,20.60
2023-01-29T23:12:06.804Z,20.30
2023-01-29T23:14:18.799Z,19.80
2023-01-29T23:16:30.943Z,20.60
2023-01-29T23:18:43.874Z,19.10
2023-01-29T23:20:59.000Z,20.60
2023-01-29T23:23:10.564Z,19.90
2023-01-29T23:25:22.313Z,19.50
2023-01-29T23:27:34.144Z,19.70
2023-01-29T23:29:47.810Z,21.90
2023-01-29T23:31:59.680Z,19.70
2023-01-29T23:34:11.665Z,21.00
2023-01-29T23:36:23.661Z,21.10
2023-01-29T23:38:35.455Z,20.40
2023-01-29T23:40:47.750Z,19.40
2023-01-29T23:42:59.445Z,20.40
2023-01-29T23:45:11.550Z,22.20
2023-01-29T23:47:23.430Z,20.40
2023-01-29T23:49:35.223Z,21.20
2023-01-29T23:51:48.339Z,20.70
2023-01-29T23:54:00.296Z,20.00
2023-01-29T23:56:12.327Z,20.50
2023-01-29T23:58:25.141Z,20.60
